sensor_id;sensor_type;location;lat;lon;timestamp;P1;durP1;ratioP1;P2;durP2;ratioP2
23670;SDS011;12012;51.998;7.614;2024-02-26T00:02:13;6.28;;;4.32;;
23670;SDS011;12012;51.998;7.614;2024-02-26T00:04:39;5.07;;;4.00;;
23670;SDS011;12012;51.998;7.614;2024-02-26T00:07:05;3.88;;;3.42;;
23670;SDS011;12012;51.998;7.614;2024-02-26T00:09:30;3.88;;;3.35;;
23670;SDS011;12012;51.998;7.614;2024-02-26T00:11:56;5.28;;;3.92;;
23670;SDS011;12012;51.998;7.614;2024-02-26T00:14:22;6.50;;;3.72;;
23670;SDS011;12012;51.998;7.614;2024-02-26T00:16:48;4.38;;;3.45;;
23670;SDS011;12012;51.998;7.614;2024-02-26T00:19:14;5.28;;;3.97;;
23670;SDS011;12012;51.998;7.614;2024-02-26T00:21:40;4.25;;;3.80;;
23670;SDS011;12012;51.998;7.614;2024-02-26T00:24:09;8.02;;;3.90;;
23670;SDS011;12012;51.998;7.614;2024-02-26T00:26:34;4.22;;;3.40;;
23670;SDS011;12012;51.998;7.614;2024-02-26T00:29:00;6.78;;;3.97;;
23670;SDS011;12012;51.998;7.614;2024-02-26T00:31:26;4.65;;;3.63;;
23670;SDS011;12012;51.998;7.614;2024-02-26T00:33:51;6.00;;;4.07;;
23670;SDS011;12012;51.998;7.614;2024-02-26T00:36:17;4.32;;;3.47;;
23670;SDS011;12012;51.998;7.614;2024-02-26T00:38:43;4.22;;;3.53;;
23670;SDS011;12012;51.998;7.614;2024-02-26T00:41:11;6.43;;;3.67;;
23670;SDS011;12012;51.998;7.614;2024-02-26T00:43:36;5.57;;;3.80;;
23670;SDS011;12012;51.998;7.614;2024-02-26T00:46:04;5.28;;;3.97;;
23670;SDS011;12012;51.998;7.614;2024-02-26T00:48:30;4.88;;;3.10;;
23670;SDS011;12012;51.998;7.614;2024-02-26T00:50:55;4.22;;;3.38;;
23670;SDS011;12012;51.998;7.614;2024-02-26T00:53:21;6.55;;;3.40;;
23670;SDS011;12012;51.998;7.614;2024-02-26T00:55:46;5.82;;;3.40;;
23670;SDS011;12012;51.998;7.614;2024-02-26T00:58:12;3.83;;;3.10;;
23670;SDS011;12012;51.998;7.614;2024-02-26T01:00:37;4.03;;;3.13;;
23670;SDS011;12012;51.998;7.614;2024-02-26T01:03:03;5.18;;;3.40;;
23670;SDS011;12012;51.998;7.614;2024-02-26T01:05:29;4.82;;;2.80;;
23670;SDS011;12012;51.998;7.614;2024-02-26T01:07:55;3.15;;;2.85;;
23670;SDS011;12012;51.998;7.614;2024-02-26T01:10:20;5.20;;;3.00;;
23670;SDS011;12012;51.998;7.614;2024-02-26T01:12:46;3.85;;;2.80;;
23670;SDS011;12012;51.998;7.614;2024-02-26T01:15:12;3.92;;;2.97;;
23670;SDS011;12012;51.998;7.614;2024-02-26T01:17:38;4.85;;;2.72;;
23670;SDS011;12012;51.998;7.614;2024-02-26T01:20:04;4.50;;;2.80;;
23670;SDS011;12012;51.998;7.614;2024-02-26T01:22:30;4.07;;;2.83;;
23670;SDS011;12012;51.998;7.614;2024-02-26T01:24:55;4.85;;;2.65;;
23670;SDS011;12012;51.998;7.614;2024-02-26T01:27:21;5.40;;;3.20;;
23670;SDS011;12012;51.998;7.614;2024-02-26T01:29:51;5.07;;;3.40;;
23670;SDS011;12012;51.998;7.614;2024-02-26T01:32:17;3.58;;;2.95;;
23670;SDS011;12012;51.998;7.614;2024-02-26T01:34:43;4.68;;;3.40;;
23670;SDS011;12012;51.998;7.614;2024-02-26T01:37:08;5.40;;;3.63;;
23670;SDS011;12012;51.998;7.614;2024-02-26T01:39:34;5.38;;;3.55;;
23670;SDS011;12012;51.998;7.614;2024-02-26T01:41:59;3.80;;;3.20;;
23670;SDS011;12012;51.998;7.614;2024-02-26T01:44:26;3.80;;;3.03;;
23670;SDS011;12012;51.998;7.614;2024-02-26T01:46:51;3.55;;;3.05;;
23670;SDS011;12012;51.998;7.614;2024-02-26T01:49:18;5.95;;;3.45;;
23670;SDS011;12012;51.998;7.614;2024-02-26T01:51:44;4.60;;;3.58;;
23670;SDS011;12012;51.998;7.614;2024-02-26T01:54:10;4.05;;;3.40;;
23670;SDS011;12012;51.998;7.614;2024-02-26T01:56:36;3.78;;;3.20;;
23670;SDS011;12012;51.998;7.614;2024-02-26T01:59:04;4.00;;;3.15;;
23670;SDS011;12012;51.998;7.614;2024-02-26T02:01:32;7.13;;;3.20;;
23670;SDS011;12012;51.998;7.614;2024-02-26T02:03:58;3.72;;;2.80;;
23670;SDS011;12012;51.998;7.614;2024-02-26T02:06:25;3.90;;;2.90;;
23670;SDS011;12012;51.998;7.614;2024-02-26T02:08:52;3.28;;;2.70;;
23670;SDS011;12012;51.998;7.614;2024-02-26T02:11:19;4.25;;;3.05;;
23670;SDS011;12012;51.998;7.614;2024-02-26T02:13:45;3.15;;;2.75;;
23670;SDS011;12012;51.998;7.614;2024-02-26T02:16:11;4.97;;;3.38;;
23670;SDS011;12012;51.998;7.614;2024-02-26T02:18:37;3.88;;;3.15;;
23670;SDS011;12012;51.998;7.614;2024-02-26T02:21:02;4.03;;;3.08;;
23670;SDS011;12012;51.998;7.614;2024-02-26T02:23:28;4.45;;;3.03;;
23670;SDS011;12012;51.998;7.614;2024-02-26T02:25:54;3.67;;;2.78;;
23670;SDS011;12012;51.998;7.614;2024-02-26T02:28:22;4.50;;;3.05;;
23670;SDS011;12012;51.998;7.614;2024-02-26T02:30:50;3.15;;;2.70;;
23670;SDS011;12012;51.998;7.614;2024-02-26T02:33:15;4.75;;;3.42;;
23670;SDS011;12012;51.998;7.614;2024-02-26T02:35:41;3.15;;;2.53;;
23670;SDS011;12012;51.998;7.614;2024-02-26T02:38:07;3.28;;;2.70;;
23670;SDS011;12012;51.998;7.614;2024-02-26T02:40:32;4.22;;;3.20;;
23670;SDS011;12012;51.998;7.614;2024-02-26T02:42:58;3.45;;;2.70;;
23670;SDS011;12012;51.998;7.614;2024-02-26T02:45:25;3.00;;;2.70;;
23670;SDS011;12012;51.998;7.614;2024-02-26T02:47:50;4.72;;;2.80;;
23670;SDS011;12012;51.998;7.614;2024-02-26T02:50:16;2.90;;;2.55;;
23670;SDS011;12012;51.998;7.614;2024-02-26T02:52:41;3.38;;;2.40;;
23670;SDS011;12012;51.998;7.614;2024-02-26T02:55:07;2.63;;;2.42;;
23670;SDS011;12012;51.998;7.614;2024-02-26T02:57:33;2.97;;;2.50;;
23670;SDS011;12012;51.998;7.614;2024-02-26T02:59:59;4.38;;;2.80;;
23670;SDS011;12012;51.998;7.614;2024-02-26T03:02:24;3.63;;;2.60;;
23670;SDS011;12012;51.998;7.614;2024-02-26T03:04:50;3.78;;;2.80;;
23670;SDS011;12012;51.998;7.614;2024-02-26T03:07:16;3.08;;;2.53;;
23670;SDS011;12012;51.998;7.614;2024-02-26T03:09:41;3.42;;;2.40;;
23670;SDS011;12012;51.998;7.614;2024-02-26T03:12:07;5.50;;;2.95;;
23670;SDS011;12012;51.998;7.614;2024-02-26T03:14:33;4.40;;;2.55;;
23670;SDS011;12012;51.998;7.614;2024-02-26T03:16:58;2.83;;;2.20;;
23670;SDS011;12012;51.998;7.614;2024-02-26T03:19:24;3.47;;;2.85;;
23670;SDS011;12012;51.998;7.614;2024-02-26T03:21:49;2.40;;;2.20;;
23670;SDS011;12012;51.998;7.614;2024-02-26T03:24:15;3.65;;;2.80;;
23670;SDS011;12012;51.998;7.614;2024-02-26T03:26:40;3.40;;;2.30;;
23670;SDS011;12012;51.998;7.614;2024-02-26T03:29:06;2.90;;;2.30;;
23670;SDS011;12012;51.998;7.614;2024-02-26T03:31:31;3.33;;;2.75;;
23670;SDS011;12012;51.998;7.614;2024-02-26T03:33:57;3.15;;;2.22;;
23670;SDS011;12012;51.998;7.614;2024-02-26T03:36:22;2.70;;;2.20;;
23670;SDS011;12012;51.998;7.614;2024-02-26T03:38:48;2.97;;;2.22;;
23670;SDS011;12012;51.998;7.614;2024-02-26T03:41:14;4.40;;;2.65;;
23670;SDS011;12012;51.998;7.614;2024-02-26T03:43:39;3.00;;;2.40;;
23670;SDS011;12012;51.998;7.614;2024-02-26T03:46:08;3.63;;;2.28;;
23670;SDS011;12012;51.998;7.614;2024-02-26T03:48:36;4.13;;;2.17;;
23670;SDS011;12012;51.998;7.614;2024-02-26T03:51:01;5.03;;;2.50;;
23670;SDS011;12012;51.998;7.614;2024-02-26T03:53:27;3.05;;;2.67;;
23670;SDS011;12012;51.998;7.614;2024-02-26T03:55:53;2.97;;;2.72;;
23670;SDS011;12012;51.998;7.614;2024-02-26T03:58:20;3.70;;;2.75;;
23670;SDS011;12012;51.998;7.614;2024-02-26T04:00:45;2.70;;;2.50;;
23670;SDS011;12012;51.998;7.614;2024-02-26T04:03:12;3.13;;;2.65;;
23670;SDS011;12012;51.998;7.614;2024-02-26T04:05:38;3.80;;;2.85;;
23670;SDS011;12012;51.998;7.614;2024-02-26T04:08:04;3.17;;;2.50;;
23670;SDS011;12012;51.998;7.614;2024-02-26T04:10:32;3.63;;;2.50;;
23670;SDS011;12012;51.998;7.614;2024-02-26T04:12:59;3.15;;;2.45;;
23670;SDS011;12012;51.998;7.614;2024-02-26T04:15:25;3.58;;;2.50;;
23670;SDS011;12012;51.998;7.614;2024-02-26T04:17:51;2.45;;;2.25;;
23670;SDS011;12012;51.998;7.614;2024-02-26T04:20:16;3.17;;;2.60;;
23670;SDS011;12012;51.998;7.614;2024-02-26T04:22:42;3.05;;;2.30;;
23670;SDS011;12012;51.998;7.614;2024-02-26T04:25:08;3.13;;;2.05;;
23670;SDS011;12012;51.998;7.614;2024-02-26T04:27:34;3.70;;;2.35;;
23670;SDS011;12012;51.998;7.614;2024-02-26T04:29:59;2.83;;;2.30;;
23670;SDS011;12012;51.998;7.614;2024-02-26T04:32:25;3.15;;;2.15;;
23670;SDS011;12012;51.998;7.614;2024-02-26T04:34:50;6.15;;;2.70;;
23670;SDS011;12012;51.998;7.614;2024-02-26T04:37:16;4.43;;;2.40;;
23670;SDS011;12012;51.998;7.614;2024-02-26T04:39:42;4.70;;;3.03;;
23670;SDS011;12012;51.998;7.614;2024-02-26T04:42:07;5.25;;;2.60;;
23670;SDS011;12012;51.998;7.614;2024-02-26T04:44:33;2.97;;;2.42;;
23670;SDS011;12012;51.998;7.614;2024-02-26T04:46:58;2.60;;;2.40;;
23670;SDS011;12012;51.998;7.614;2024-02-26T04:49:24;3.60;;;2.30;;
23670;SDS011;12012;51.998;7.614;2024-02-26T04:51:49;2.75;;;1.80;;
23670;SDS011;12012;51.998;7.614;2024-02-26T04:54:15;2.08;;;1.80;;
23670;SDS011;12012;51.998;7.614;2024-02-26T04:56:40;2.83;;;2.15;;
23670;SDS011;12012;51.998;7.614;2024-02-26T04:59:06;3.92;;;2.35;;
23670;SDS011;12012;51.998;7.614;2024-02-26T05:01:32;3.30;;;2.17;;
23670;SDS011;12012;51.998;7.614;2024-02-26T05:03:57;2.28;;;1.90;;
23670;SDS011;12012;51.998;7.614;2024-02-26T05:06:23;4.40;;;2.40;;
23670;SDS011;12012;51.998;7.614;2024-02-26T05:08:48;2.40;;;2.20;;
23670;SDS011;12012;51.998;7.614;2024-02-26T05:11:14;3.42;;;2.40;;
23670;SDS011;12012;51.998;7.614;2024-02-26T05:13:39;3.88;;;2.50;;
23670;SDS011;12012;51.998;7.614;2024-02-26T05:16:05;2.33;;;2.13;;
23670;SDS011;12012;51.998;7.614;2024-02-26T05:18:30;2.53;;;2.10;;
23670;SDS011;12012;51.998;7.614;2024-02-26T05:20:56;3.75;;;2.08;;
23670;SDS011;12012;51.998;7.614;2024-02-26T05:23:21;3.70;;;2.10;;
23670;SDS011;12012;51.998;7.614;2024-02-26T05:25:48;2.85;;;2.30;;
23670;SDS011;12012;51.998;7.614;2024-02-26T05:28:14;3.00;;;2.17;;
23670;SDS011;12012;51.998;7.614;2024-02-26T05:30:40;3.70;;;2.25;;
23670;SDS011;12012;51.998;7.614;2024-02-26T05:33:07;3.35;;;2.17;;
23670;SDS011;12012;51.998;7.614;2024-02-26T05:35:33;4.25;;;2.35;;
23670;SDS011;12012;51.998;7.614;2024-02-26T05:37:58;3.38;;;1.90;;
23670;SDS011;12012;51.998;7.614;2024-02-26T05:40:24;2.88;;;1.90;;
23670;SDS011;12012;51.998;7.614;2024-02-26T05:42:49;2.28;;;1.90;;
23670;SDS011;12012;51.998;7.614;2024-02-26T05:45:15;2.60;;;1.98;;
23670;SDS011;12012;51.998;7.614;2024-02-26T05:47:40;2.42;;;1.92;;
23670;SDS011;12012;51.998;7.614;2024-02-26T05:50:10;2.03;;;1.80;;
23670;SDS011;12012;51.998;7.614;2024-02-26T05:52:36;3.35;;;1.90;;
23670;SDS011;12012;51.998;7.614;2024-02-26T05:55:03;2.20;;;2.00;;
23670;SDS011;12012;51.998;7.614;2024-02-26T05:57:29;2.45;;;1.90;;
23670;SDS011;12012;51.998;7.614;2024-02-26T05:59:56;2.70;;;1.88;;
23670;SDS011;12012;51.998;7.614;2024-02-26T06:02:21;2.25;;;1.88;;
23670;SDS011;12012;51.998;7.614;2024-02-26T06:04:47;3.30;;;2.00;;
23670;SDS011;12012;51.998;7.614;2024-02-26T06:07:12;3.03;;;2.42;;
23670;SDS011;12012;51.998;7.614;2024-02-26T06:09:38;2.53;;;2.33;;
23670;SDS011;12012;51.998;7.614;2024-02-26T06:12:04;4.57;;;2.60;;
23670;SDS011;12012;51.998;7.614;2024-02-26T06:14:30;3.17;;;2.35;;
23670;SDS011;12012;51.998;7.614;2024-02-26T06:16:55;3.28;;;2.60;;
23670;SDS011;12012;51.998;7.614;2024-02-26T06:19:21;2.72;;;2.25;;
23670;SDS011;12012;51.998;7.614;2024-02-26T06:21:47;4.35;;;2.60;;
23670;SDS011;12012;51.998;7.614;2024-02-26T06:24:12;3.28;;;2.50;;
23670;SDS011;12012;51.998;7.614;2024-02-26T06:26:38;4.70;;;2.60;;
23670;SDS011;12012;51.998;7.614;2024-02-26T06:29:03;3.25;;;2.33;;
23670;SDS011;12012;51.998;7.614;2024-02-26T06:31:29;4.60;;;2.45;;
23670;SDS011;12012;51.998;7.614;2024-02-26T06:33:54;2.95;;;2.40;;
23670;SDS011;12012;51.998;7.614;2024-02-26T06:36:21;4.18;;;2.30;;
23670;SDS011;12012;51.998;7.614;2024-02-26T06:38:47;3.55;;;2.30;;
23670;SDS011;12012;51.998;7.614;2024-02-26T06:41:12;3.22;;;2.42;;
23670;SDS011;12012;51.998;7.614;2024-02-26T06:43:38;3.03;;;2.50;;
23670;SDS011;12012;51.998;7.614;2024-02-26T06:46:03;2.50;;;2.20;;
23670;SDS011;12012;51.998;7.614;2024-02-26T06:48:31;2.55;;;2.17;;
23670;SDS011;12012;51.998;7.614;2024-02-26T06:50:57;3.35;;;2.60;;
23670;SDS011;12012;51.998;7.614;2024-02-26T06:53:22;4.15;;;2.40;;
23670;SDS011;12012;51.998;7.614;2024-02-26T06:55:48;4.70;;;2.55;;
23670;SDS011;12012;51.998;7.614;2024-02-26T06:58:15;4.13;;;2.70;;
23670;SDS011;12012;51.998;7.614;2024-02-26T07:00:40;4.10;;;2.53;;
23670;SDS011;12012;51.998;7.614;2024-02-26T07:03:06;5.13;;;2.97;;
23670;SDS011;12012;51.998;7.614;2024-02-26T07:05:31;3.33;;;2.40;;
23670;SDS011;12012;51.998;7.614;2024-02-26T07:07:57;3.22;;;2.47;;
23670;SDS011;12012;51.998;7.614;2024-02-26T07:10:23;4.22;;;2.72;;
23670;SDS011;12012;51.998;7.614;2024-02-26T07:12:48;4.30;;;2.70;;
23670;SDS011;12012;51.998;7.614;2024-02-26T07:15:14;2.90;;;2.58;;
23670;SDS011;12012;51.998;7.614;2024-02-26T07:17:39;5.00;;;3.38;;
23670;SDS011;12012;51.998;7.614;2024-02-26T07:20:07;4.45;;;2.75;;
23670;SDS011;12012;51.998;7.614;2024-02-26T07:22:34;4.25;;;2.75;;
23670;SDS011;12012;51.998;7.614;2024-02-26T07:24:59;3.53;;;2.88;;
23670;SDS011;12012;51.998;7.614;2024-02-26T07:27:25;3.15;;;2.80;;
23670;SDS011;12012;51.998;7.614;2024-02-26T07:29:50;4.05;;;3.10;;
23670;SDS011;12012;51.998;7.614;2024-02-26T07:32:16;6.60;;;3.20;;
23670;SDS011;12012;51.998;7.614;2024-02-26T07:34:41;5.38;;;3.50;;
23670;SDS011;12012;51.998;7.614;2024-02-26T07:37:09;3.55;;;3.25;;
23670;SDS011;12012;51.998;7.614;2024-02-26T07:39:35;3.83;;;3.20;;
23670;SDS011;12012;51.998;7.614;2024-02-26T07:42:01;9.57;;;3.75;;
23670;SDS011;12012;51.998;7.614;2024-02-26T07:44:27;5.22;;;3.25;;
23670;SDS011;12012;51.998;7.614;2024-02-26T07:46:53;4.18;;;3.47;;
23670;SDS011;12012;51.998;7.614;2024-02-26T07:49:18;6.15;;;3.83;;
23670;SDS011;12012;51.998;7.614;2024-02-26T07:51:44;6.30;;;4.45;;
23670;SDS011;12012;51.998;7.614;2024-02-26T07:54:09;4.82;;;3.38;;
23670;SDS011;12012;51.998;7.614;2024-02-26T07:56:35;7.20;;;4.32;;
23670;SDS011;12012;51.998;7.614;2024-02-26T07:59:00;6.30;;;4.95;;
23670;SDS011;12012;51.998;7.614;2024-02-26T08:01:26;6.78;;;4.68;;
23670;SDS011;12012;51.998;7.614;2024-02-26T08:03:52;6.72;;;4.47;;
23670;SDS011;12012;51.998;7.614;2024-02-26T08:06:18;8.48;;;5.15;;
23670;SDS011;12012;51.998;7.614;2024-02-26T08:08:44;10.30;;;5.55;;
23670;SDS011;12012;51.998;7.614;2024-02-26T08:11:09;7.07;;;5.15;;
23670;SDS011;12012;51.998;7.614;2024-02-26T08:13:35;7.53;;;5.78;;
23670;SDS011;12012;51.998;7.614;2024-02-26T08:16:01;7.15;;;4.95;;
23670;SDS011;12012;51.998;7.614;2024-02-26T08:18:26;6.43;;;4.72;;
23670;SDS011;12012;51.998;7.614;2024-02-26T08:20:52;9.27;;;5.30;;
23670;SDS011;12012;51.998;7.614;2024-02-26T08:23:17;7.60;;;5.13;;
23670;SDS011;12012;51.998;7.614;2024-02-26T08:25:43;6.90;;;4.70;;
23670;SDS011;12012;51.998;7.614;2024-02-26T08:28:09;6.05;;;4.55;;
23670;SDS011;12012;51.998;7.614;2024-02-26T08:30:38;6.20;;;4.43;;
23670;SDS011;12012;51.998;7.614;2024-02-26T08:33:03;7.68;;;4.90;;
23670;SDS011;12012;51.998;7.614;2024-02-26T08:35:29;10.32;;;5.38;;
23670;SDS011;12012;51.998;7.614;2024-02-26T08:37:54;7.53;;;4.95;;
23670;SDS011;12012;51.998;7.614;2024-02-26T08:40:20;6.20;;;4.88;;
23670;SDS011;12012;51.998;7.614;2024-02-26T08:42:46;6.88;;;4.97;;
23670;SDS011;12012;51.998;7.614;2024-02-26T08:45:11;6.38;;;4.47;;
23670;SDS011;12012;51.998;7.614;2024-02-26T08:47:37;7.80;;;4.88;;
23670;SDS011;12012;51.998;7.614;2024-02-26T08:50:03;7.63;;;5.25;;
23670;SDS011;12012;51.998;7.614;2024-02-26T08:52:29;7.05;;;5.32;;
23670;SDS011;12012;51.998;7.614;2024-02-26T08:54:55;6.97;;;4.85;;
23670;SDS011;12012;51.998;7.614;2024-02-26T08:57:21;7.07;;;4.93;;
23670;SDS011;12012;51.998;7.614;2024-02-26T08:59:47;7.97;;;4.88;;
23670;SDS011;12012;51.998;7.614;2024-02-26T09:02:13;5.93;;;4.57;;
23670;SDS011;12012;51.998;7.614;2024-02-26T09:04:38;6.55;;;5.10;;
23670;SDS011;12012;51.998;7.614;2024-02-26T09:07:04;6.78;;;5.10;;
23670;SDS011;12012;51.998;7.614;2024-02-26T09:09:29;7.30;;;5.35;;
23670;SDS011;12012;51.998;7.614;2024-02-26T09:11:55;8.43;;;4.97;;
23670;SDS011;12012;51.998;7.614;2024-02-26T09:14:21;8.77;;;5.18;;
23670;SDS011;12012;51.998;7.614;2024-02-26T09:16:46;6.82;;;5.38;;
23670;SDS011;12012;51.998;7.614;2024-02-26T09:19:16;8.02;;;5.18;;
23670;SDS011;12012;51.998;7.614;2024-02-26T09:21:42;7.40;;;5.25;;
23670;SDS011;12012;51.998;7.614;2024-02-26T09:24:11;8.43;;;5.63;;
23670;SDS011;12012;51.998;7.614;2024-02-26T09:26:37;8.73;;;5.35;;
23670;SDS011;12012;51.998;7.614;2024-02-26T09:29:03;8.18;;;5.85;;
23670;SDS011;12012;51.998;7.614;2024-02-26T09:31:29;7.72;;;5.43;;
23670;SDS011;12012;51.998;7.614;2024-02-26T09:33:59;8.07;;;5.68;;
23670;SDS011;12012;51.998;7.614;2024-02-26T09:36:24;8.88;;;5.63;;
23670;SDS011;12012;51.998;7.614;2024-02-26T09:38:50;8.38;;;5.40;;
23670;SDS011;12012;51.998;7.614;2024-02-26T09:41:15;7.53;;;5.72;;
23670;SDS011;12012;51.998;7.614;2024-02-26T09:43:42;7.68;;;5.07;;
23670;SDS011;12012;51.998;7.614;2024-02-26T09:46:11;8.85;;;5.97;;
23670;SDS011;12012;51.998;7.614;2024-02-26T09:48:37;10.52;;;6.10;;
23670;SDS011;12012;51.998;7.614;2024-02-26T09:51:03;9.65;;;5.68;;
23670;SDS011;12012;51.998;7.614;2024-02-26T09:53:29;8.57;;;5.25;;
23670;SDS011;12012;51.998;7.614;2024-02-26T09:55:58;9.40;;;5.65;;
23670;SDS011;12012;51.998;7.614;2024-02-26T09:58:24;8.88;;;5.38;;
23670;SDS011;12012;51.998;7.614;2024-02-26T10:00:53;8.50;;;5.88;;
23670;SDS011;12012;51.998;7.614;2024-02-26T10:03:23;8.35;;;5.93;;
23670;SDS011;12012;51.998;7.614;2024-02-26T10:05:53;10.15;;;6.70;;
23670;SDS011;12012;51.998;7.614;2024-02-26T10:08:20;8.10;;;5.85;;
23670;SDS011;12012;51.998;7.614;2024-02-26T10:10:47;8.50;;;5.57;;
23670;SDS011;12012;51.998;7.614;2024-02-26T10:13:13;8.02;;;6.03;;
23670;SDS011;12012;51.998;7.614;2024-02-26T10:15:39;8.77;;;6.22;;
23670;SDS011;12012;51.998;7.614;2024-02-26T10:18:05;9.68;;;6.28;;
23670;SDS011;12012;51.998;7.614;2024-02-26T10:20:31;9.65;;;6.63;;
23670;SDS011;12012;51.998;7.614;2024-02-26T10:22:57;9.07;;;6.18;;
23670;SDS011;12012;51.998;7.614;2024-02-26T10:25:23;9.35;;;5.90;;
23670;SDS011;12012;51.998;7.614;2024-02-26T10:27:49;10.05;;;6.57;;
23670;SDS011;12012;51.998;7.614;2024-02-26T10:32:47;8.95;;;6.07;;
23670;SDS011;12012;51.998;7.614;2024-02-26T10:35:16;8.35;;;6.18;;
23670;SDS011;12012;51.998;7.614;2024-02-26T10:37:43;8.82;;;6.55;;
23670;SDS011;12012;51.998;7.614;2024-02-26T10:40:12;8.68;;;6.13;;
23670;SDS011;12012;51.998;7.614;2024-02-26T10:42:38;9.75;;;6.43;;
23670;SDS011;12012;51.998;7.614;2024-02-26T10:45:05;9.98;;;6.20;;
23670;SDS011;12012;51.998;7.614;2024-02-26T10:47:31;7.50;;;5.78;;
23670;SDS011;12012;51.998;7.614;2024-02-26T10:49:58;6.80;;;5.57;;
23670;SDS011;12012;51.998;7.614;2024-02-26T10:52:24;9.98;;;5.75;;
23670;SDS011;12012;51.998;7.614;2024-02-26T10:54:53;8.93;;;5.45;;
23670;SDS011;12012;51.998;7.614;2024-02-26T10:57:21;9.60;;;6.05;;
23670;SDS011;12012;51.998;7.614;2024-02-26T10:59:48;11.80;;;6.35;;
23670;SDS011;12012;51.998;7.614;2024-02-26T11:02:16;7.50;;;6.00;;
23670;SDS011;12012;51.998;7.614;2024-02-26T11:04:42;8.40;;;6.20;;
23670;SDS011;12012;51.998;7.614;2024-02-26T11:07:09;8.18;;;5.32;;
23670;SDS011;12012;51.998;7.614;2024-02-26T11:09:35;6.75;;;5.32;;
23670;SDS011;12012;51.998;7.614;2024-02-26T11:12:06;8.52;;;5.60;;
23670;SDS011;12012;51.998;7.614;2024-02-26T11:14:36;8.05;;;5.03;;
23670;SDS011;12012;51.998;7.614;2024-02-26T11:17:05;6.50;;;4.88;;
23670;SDS011;12012;51.998;7.614;2024-02-26T11:19:33;7.22;;;4.70;;
23670;SDS011;12012;51.998;7.614;2024-02-26T11:22:01;6.30;;;4.55;;
23670;SDS011;12012;51.998;7.614;2024-02-26T11:24:27;8.18;;;4.80;;
23670;SDS011;12012;51.998;7.614;2024-02-26T11:27:01;6.88;;;4.80;;
23670;SDS011;12012;51.998;7.614;2024-02-26T11:29:32;4.85;;;4.03;;
23670;SDS011;12012;51.998;7.614;2024-02-26T11:32:02;5.38;;;4.57;;
23670;SDS011;12012;51.998;7.614;2024-02-26T11:34:29;5.68;;;4.38;;
23670;SDS011;12012;51.998;7.614;2024-02-26T11:36:54;7.47;;;4.57;;
23670;SDS011;12012;51.998;7.614;2024-02-26T11:39:21;6.22;;;3.88;;
23670;SDS011;12012;51.998;7.614;2024-02-26T11:41:48;5.70;;;4.22;;
23670;SDS011;12012;51.998;7.614;2024-02-26T11:44:15;5.07;;;3.80;;
23670;SDS011;12012;51.998;7.614;2024-02-26T11:46:54;4.85;;;3.47;;
23670;SDS011;12012;51.998;7.614;2024-02-26T11:51:54;4.57;;;3.30;;
23670;SDS011;12012;51.998;7.614;2024-02-26T11:57:04;4.38;;;3.75;;
23670;SDS011;12012;51.998;7.614;2024-02-26T11:59:44;4.45;;;3.50;;
23670;SDS011;12012;51.998;7.614;2024-02-26T12:02:10;4.80;;;3.55;;
23670;SDS011;12012;51.998;7.614;2024-02-26T12:04:37;5.28;;;3.40;;
23670;SDS011;12012;51.998;7.614;2024-02-26T12:07:03;5.85;;;3.88;;
23670;SDS011;12012;51.998;7.614;2024-02-26T12:09:37;4.13;;;3.40;;
23670;SDS011;12012;51.998;7.614;2024-02-26T12:12:04;4.95;;;3.40;;
23670;SDS011;12012;51.998;7.614;2024-02-26T12:14:50;3.38;;;3.00;;
23670;SDS011;12012;51.998;7.614;2024-02-26T12:17:23;5.93;;;3.72;;
23670;SDS011;12012;51.998;7.614;2024-02-26T12:19:50;4.10;;;3.63;;
23670;SDS011;12012;51.998;7.614;2024-02-26T12:22:18;4.30;;;3.55;;
23670;SDS011;12012;51.998;7.614;2024-02-26T12:24:44;5.55;;;3.95;;
23670;SDS011;12012;51.998;7.614;2024-02-26T12:27:10;3.80;;;3.40;;
23670;SDS011;12012;51.998;7.614;2024-02-26T12:29:35;4.22;;;3.83;;
23670;SDS011;12012;51.998;7.614;2024-02-26T12:32:01;4.88;;;4.03;;
23670;SDS011;12012;51.998;7.614;2024-02-26T12:34:31;4.60;;;3.88;;
23670;SDS011;12012;51.998;7.614;2024-02-26T12:36:57;5.32;;;4.00;;
23670;SDS011;12012;51.998;7.614;2024-02-26T12:39:23;7.50;;;4.30;;
23670;SDS011;12012;51.998;7.614;2024-02-26T12:41:49;5.93;;;4.18;;
23670;SDS011;12012;51.998;7.614;2024-02-26T12:44:17;5.10;;;4.28;;
23670;SDS011;12012;51.998;7.614;2024-02-26T12:46:43;6.10;;;4.30;;
23670;SDS011;12012;51.998;7.614;2024-02-26T12:49:09;6.57;;;4.22;;
23670;SDS011;12012;51.998;7.614;2024-02-26T12:51:40;4.28;;;3.55;;
23670;SDS011;12012;51.998;7.614;2024-02-26T12:54:06;5.43;;;4.43;;
23670;SDS011;12012;51.998;7.614;2024-02-26T12:56:34;5.53;;;4.07;;
23670;SDS011;12012;51.998;7.614;2024-02-26T12:58:59;5.32;;;4.15;;
23670;SDS011;12012;51.998;7.614;2024-02-26T13:01:27;6.22;;;4.20;;
23670;SDS011;12012;51.998;7.614;2024-02-26T13:03:53;5.50;;;4.10;;
23670;SDS011;12012;51.998;7.614;2024-02-26T13:06:19;4.97;;;3.85;;
23670;SDS011;12012;51.998;7.614;2024-02-26T13:08:47;4.75;;;3.90;;
23670;SDS011;12012;51.998;7.614;2024-02-26T13:11:13;5.13;;;4.10;;
23670;SDS011;12012;51.998;7.614;2024-02-26T13:13:39;4.65;;;3.30;;
23670;SDS011;12012;51.998;7.614;2024-02-26T13:16:05;4.65;;;3.78;;
23670;SDS011;12012;51.998;7.614;2024-02-26T13:18:40;5.70;;;3.80;;
23670;SDS011;12012;51.998;7.614;2024-02-26T13:23:38;5.32;;;3.88;;
23670;SDS011;12012;51.998;7.614;2024-02-26T13:26:05;4.15;;;3.75;;
23670;SDS011;12012;51.998;7.614;2024-02-26T13:28:31;5.53;;;3.92;;
23670;SDS011;12012;51.998;7.614;2024-02-26T13:30:57;5.35;;;3.92;;
23670;SDS011;12012;51.998;7.614;2024-02-26T13:33:25;9.35;;;5.10;;
23670;SDS011;12012;51.998;7.614;2024-02-26T13:35:51;11.38;;;5.65;;
23670;SDS011;12012;51.998;7.614;2024-02-26T13:38:17;7.95;;;4.57;;
23670;SDS011;12012;51.998;7.614;2024-02-26T13:40:43;5.70;;;4.10;;
23670;SDS011;12012;51.998;7.614;2024-02-26T13:43:09;5.75;;;3.92;;
23670;SDS011;12012;51.998;7.614;2024-02-26T13:45:35;3.88;;;3.50;;
23670;SDS011;12012;51.998;7.614;2024-02-26T13:48:02;5.80;;;4.25;;
23670;SDS011;12012;51.998;7.614;2024-02-26T13:50:29;5.47;;;3.83;;
23670;SDS011;12012;51.998;7.614;2024-02-26T13:52:55;5.35;;;3.95;;
23670;SDS011;12012;51.998;7.614;2024-02-26T13:55:30;5.22;;;3.50;;
23670;SDS011;12012;51.998;7.614;2024-02-26T13:57:57;4.93;;;4.35;;
23670;SDS011;12012;51.998;7.614;2024-02-26T14:00:24;5.70;;;4.43;;
23670;SDS011;12012;51.998;7.614;2024-02-26T14:02:50;5.70;;;3.78;;
23670;SDS011;12012;51.998;7.614;2024-02-26T14:05:16;6.65;;;4.20;;
23670;SDS011;12012;51.998;7.614;2024-02-26T14:07:42;5.80;;;4.20;;
23670;SDS011;12012;51.998;7.614;2024-02-26T14:10:08;7.60;;;4.68;;
23670;SDS011;12012;51.998;7.614;2024-02-26T14:12:36;5.45;;;4.30;;
23670;SDS011;12012;51.998;7.614;2024-02-26T14:15:02;5.35;;;4.25;;
23670;SDS011;12012;51.998;7.614;2024-02-26T14:17:30;5.43;;;4.30;;
23670;SDS011;12012;51.998;7.614;2024-02-26T14:19:55;4.45;;;4.00;;
23670;SDS011;12012;51.998;7.614;2024-02-26T14:22:21;4.70;;;4.03;;
23670;SDS011;12012;51.998;7.614;2024-02-26T14:24:47;4.80;;;4.18;;
23670;SDS011;12012;51.998;7.614;2024-02-26T14:27:13;4.63;;;3.63;;
23670;SDS011;12012;51.998;7.614;2024-02-26T14:29:45;5.82;;;4.38;;
23670;SDS011;12012;51.998;7.614;2024-02-26T14:32:10;4.72;;;3.50;;
23670;SDS011;12012;51.998;7.614;2024-02-26T14:34:36;4.93;;;4.13;;
23670;SDS011;12012;51.998;7.614;2024-02-26T14:37:02;5.90;;;4.38;;
23670;SDS011;12012;51.998;7.614;2024-02-26T14:39:28;5.47;;;4.07;;
23670;SDS011;12012;51.998;7.614;2024-02-26T14:41:54;6.32;;;4.28;;
23670;SDS011;12012;51.998;7.614;2024-02-26T14:44:19;7.25;;;4.35;;
23670;SDS011;12012;51.998;7.614;2024-02-26T14:46:45;6.82;;;4.32;;
23670;SDS011;12012;51.998;7.614;2024-02-26T14:49:11;7.93;;;4.60;;
23670;SDS011;12012;51.998;7.614;2024-02-26T14:51:37;6.25;;;4.63;;
23670;SDS011;12012;51.998;7.614;2024-02-26T14:54:03;6.10;;;4.50;;